Time;durP1;ratioP1;P1;durP2;ratioP2;P2;SDS_P1;SDS_P2;PMS_P1;PMS_P2;Temp;Humidity;BMP_temperature;BMP_pressure;BME280_temperature;BME280_humidity;BME280_pressure;Samples;Min_cycle;Max_cycle;Signal;HPM_P1;HPM_P2
2022/06/29 00:00:15;;;;;;;3.08;1.60;;;15.60;99.90;;;;;;5092615;28;20525;-75
2022/06/29 00:02:43;;;;;;;2.95;1.50;;;15.60;99.90;;;;;;5092630;28;20044;-75
2022/06/29 00:05:10;;;;;;;2.72;1.80;;;15.60;99.90;;;;;;5074768;28;20056;-74
2022/06/29 00:07:36;;;;;;;3.53;1.52;;;15.60;99.90;;;;;;5092692;28;20464;-74
2022/06/29 00:10:03;;;;;;;3.92;1.75;;;15.60;99.90;;;;;;5074539;28;20086;-74
2022/06/29 00:12:30;;;;;;;3.03;1.52;;;15.50;99.90;;;;;;5092489;28;20468;-74
2022/06/29 00:14:56;;;;;;;3.35;1.65;;;15.40;99.90;;;;;;5092722;28;20097;-74
2022/06/29 00:17:23;;;;;;;2.60;1.65;;;15.40;99.90;;;;;;5074408;28;20130;-74
2022/06/29 00:19:49;;;;;;;2.80;1.60;;;15.40;99.90;;;;;;5092215;28;20052;-74
2022/06/29 00:22:15;;;;;;;3.10;1.98;;;15.30;99.90;;;;;;5092496;28;20055;-75
2022/06/29 00:24:41;;;;;;;3.15;1.80;;;15.30;99.90;;;;;;5074256;28;20087;-74
2022/06/29 00:27:08;;;;;;;3.25;1.70;;;15.30;99.90;;;;;;5074475;28;20055;-74
2022/06/29 00:29:34;;;;;;;4.50;2.00;;;15.20;99.90;;;;;;5074394;28;20040;-75
2022/06/29 00:32:00;;;;;;;2.92;1.90;;;15.20;99.90;;;;;;5074318;28;20059;-74
2022/06/29 00:34:25;;;;;;;2.17;1.65;;;15.10;99.90;;;;;;5091907;28;20052;-74
2022/06/29 00:36:51;;;;;;;2.90;1.63;;;15.10;99.90;;;;;;5074008;28;20044;-74
2022/06/29 00:39:17;;;;;;;2.95;1.70;;;15.00;99.90;;;;;;5074098;28;20401;-75
2022/06/29 00:41:44;;;;;;;2.60;1.70;;;15.00;99.90;;;;;;5091955;28;20048;-74
2022/06/29 00:44:18;;;;;;;2.17;1.60;;;14.90;99.90;;;;;;5074159;28;20233;-74
2022/06/29 00:46:50;;;;;;;3.42;1.60;;;14.80;99.90;;;;;;5073961;28;20166;-74
2022/06/29 00:49:18;;;;;;;3.30;2.13;;;14.80;99.90;;;;;;5073660;28;20055;-74
2022/06/29 00:51:49;;;;;;;3.50;2.30;;;14.80;99.90;;;;;;5091885;28;20499;-74
2022/06/29 00:54:19;;;;;;;3.92;2.53;;;14.90;99.90;;;;;;5073757;28;20181;-74
2022/06/29 00:56:46;;;;;;;3.25;2.20;;;14.90;99.90;;;;;;5091944;28;20384;-74
2022/06/29 00:59:15;;;;;;;5.72;2.40;;;14.90;99.90;;;;;;5073845;28;20137;-74
2022/06/29 01:01:42;;;;;;;4.05;2.20;;;14.90;99.90;;;;;;5091650;28;20060;-74
2022/06/29 01:04:08;;;;;;;3.03;2.20;;;14.90;99.90;;;;;;5091676;28;20105;-75
2022/06/29 01:06:34;;;;;;;3.75;2.42;;;14.90;99.90;;;;;;5091582;28;20048;-75
2022/06/29 01:09:00;;;;;;;2.63;2.33;;;15.00;99.90;;;;;;5091865;28;20062;-74
2022/06/29 01:11:26;;;;;;;3.63;2.28;;;15.00;99.90;;;;;;5073638;28;20047;-74
2022/06/29 01:13:52;;;;;;;4.72;2.30;;;14.90;99.90;;;;;;5091699;28;20052;-74
2022/06/29 01:16:17;;;;;;;3.70;2.50;;;15.00;99.90;;;;;;5091575;28;20060;-75
2022/06/29 01:18:43;;;;;;;4.72;2.40;;;15.00;99.90;;;;;;5091411;28;20531;-75
2022/06/29 01:21:13;;;;;;;5.10;2.20;;;15.00;99.90;;;;;;5090825;28;20060;-74
2022/06/29 01:23:39;;;;;;;3.35;2.20;;;15.00;99.90;;;;;;5091501;28;20060;-75
2022/06/29 01:26:07;;;;;;;3.30;2.13;;;14.90;99.90;;;;;;5093982;28;20101;-74
2022/06/29 01:28:32;;;;;;;3.13;2.47;;;14.90;99.90;;;;;;5093867;28;20048;-75
2022/06/29 01:30:59;;;;;;;4.65;2.22;;;15.00;99.90;;;;;;5094409;28;20446;-75
2022/06/29 01:33:24;;;;;;;3.15;2.60;;;14.90;99.90;;;;;;5076066;28;20048;-75
2022/06/29 01:35:50;;;;;;;3.70;2.30;;;14.90;99.90;;;;;;5093081;28;20101;-75
2022/06/29 01:38:17;;;;;;;4.45;2.47;;;14.90;99.90;;;;;;5091454;28;20040;-75
2022/06/29 01:40:43;;;;;;;2.90;2.47;;;14.80;99.90;;;;;;5073471;28;20470;-75
2022/06/29 01:43:09;;;;;;;3.50;2.90;;;14.80;99.90;;;;;;5091402;28;20139;-75
2022/06/29 01:45:35;;;;;;;3.42;2.65;;;14.80;99.90;;;;;;5091293;28;20048;-74
2022/06/29 01:48:00;;;;;;;3.83;2.70;;;14.70;99.90;;;;;;5091237;28;20446;-74
2022/06/29 01:50:27;;;;;;;3.20;2.80;;;14.70;99.90;;;;;;5091024;28;20062;-74
2022/06/29 01:52:53;;;;;;;3.33;2.60;;;14.70;99.90;;;;;;5073327;28;20059;-74
2022/06/29 01:55:18;;;;;;;2.95;2.63;;;14.70;99.90;;;;;;5091176;28;20376;-74
2022/06/29 01:57:44;;;;;;;4.82;2.72;;;14.60;99.90;;;;;;5091076;28;20055;-74
2022/06/29 02:00:10;;;;;;;2.95;2.30;;;14.70;99.90;;;;;;5091153;28;20082;-74
2022/06/29 02:02:36;;;;;;;3.00;2.50;;;14.60;99.90;;;;;;5073249;28;20040;-74
2022/06/29 02:05:02;;;;;;;3.30;2.50;;;14.70;99.90;;;;;;5091105;28;20047;-74
2022/06/29 02:07:28;;;;;;;4.97;2.83;;;14.60;99.90;;;;;;5072946;28;20514;-74
2022/06/29 02:09:53;;;;;;;3.78;2.75;;;14.60;99.90;;;;;;5073215;28;20056;-74
2022/06/29 02:12:19;;;;;;;3.83;2.70;;;14.60;99.90;;;;;;5090723;28;20067;-74
2022/06/29 02:14:45;;;;;;;3.78;2.95;;;14.60;99.90;;;;;;5091183;28;20044;-74
2022/06/29 02:17:11;;;;;;;3.70;2.30;;;14.50;99.90;;;;;;5056339;28;20400;-74
2022/06/29 02:19:36;;;;;;;3.03;2.63;;;14.50;99.90;;;;;;5091698;28;20134;-75
2022/06/29 02:22:02;;;;;;;4.88;2.83;;;14.50;99.90;;;;;;5094774;28;20209;-75
2022/06/29 02:24:28;;;;;;;3.65;2.88;;;14.50;99.90;;;;;;5094745;28;20063;-74
2022/06/29 02:26:53;;;;;;;4.20;2.80;;;14.50;99.90;;;;;;5076805;28;20070;-74
2022/06/29 02:29:19;;;;;;;3.40;3.05;;;14.40;99.90;;;;;;5094672;28;20040;-74
2022/06/29 02:34:44;;;;;;;3.63;3.17;;;14.40;99.90;;;;;;5094375;28;20044;-75
2022/06/29 02:37:11;;;;;;;5.53;3.30;;;14.40;99.90;;;;;;5094470;28;20516;-74
2022/06/29 02:39:38;;;;;;;4.30;2.90;;;14.30;99.90;;;;;;5094457;28;20040;-75
2022/06/29 02:42:05;;;;;;;3.50;2.92;;;14.30;99.90;;;;;;5094366;28;20052;-75
2022/06/29 02:44:31;;;;;;;6.78;3.40;;;14.30;99.90;;;;;;5076457;28;20103;-74
2022/06/29 02:46:56;;;;;;;3.97;3.05;;;14.30;99.90;;;;;;5094289;28;20068;-74
2022/06/29 02:49:22;;;;;;;3.60;3.08;;;14.30;99.90;;;;;;5093967;28;20125;-75
2022/06/29 02:51:48;;;;;;;3.97;3.47;;;14.30;99.90;;;;;;5094220;28;20122;-74
2022/06/29 02:54:14;;;;;;;3.60;3.08;;;14.20;99.90;;;;;;5094078;28;20050;-74
2022/06/29 02:56:39;;;;;;;4.35;3.00;;;14.20;99.90;;;;;;5094152;28;20455;-74
2022/06/29 02:59:05;;;;;;;3.17;2.88;;;14.20;99.90;;;;;;5094116;28;20134;-74
2022/06/29 03:01:31;;;;;;;4.53;3.58;;;14.20;99.90;;;;;;5093919;28;20580;-74
2022/06/29 03:03:56;;;;;;;4.20;3.30;;;14.20;99.90;;;;;;5075677;28;20036;-75
2022/06/29 03:06:22;;;;;;;4.18;3.50;;;14.20;99.90;;;;;;5093978;28;20056;-74
2022/06/29 03:08:48;;;;;;;4.03;3.05;;;14.20;99.90;;;;;;5094063;28;20130;-75
2022/06/29 03:11:13;;;;;;;3.47;2.83;;;14.20;99.90;;;;;;5094026;28;20052;-74
2022/06/29 03:13:39;;;;;;;3.65;3.20;;;14.20;99.90;;;;;;5093800;28;20044;-74
2022/06/29 03:16:05;;;;;;;3.97;3.05;;;14.20;99.90;;;;;;5093746;28;20060;-75
2022/06/29 03:18:31;;;;;;;4.63;3.25;;;14.20;99.90;;;;;;5075866;28;20044;-75
2022/06/29 03:20:57;;;;;;;3.80;3.40;;;14.20;99.90;;;;;;5093430;28;20383;-75
2022/06/29 03:23:22;;;;;;;4.90;3.15;;;14.20;99.90;;;;;;5093837;28;20044;-74
2022/06/29 03:25:48;;;;;;;4.07;3.03;;;14.10;99.90;;;;;;5075649;28;20056;-74
2022/06/29 03:28:14;;;;;;;3.85;3.20;;;14.10;99.90;;;;;;5093569;28;20048;-75
2022/06/29 03:30:40;;;;;;;4.00;3.03;;;14.10;99.90;;;;;;5074497;28;20086;-75
2022/06/29 03:33:05;;;;;;;4.35;3.08;;;14.00;99.90;;;;;;5092822;28;20063;-75
2022/06/29 03:35:31;;;;;;;3.85;3.15;;;14.00;99.90;;;;;;5093505;28;20093;-75
2022/06/29 03:37:57;;;;;;;4.40;3.22;;;14.00;99.90;;;;;;5093224;28;20044;-74
2022/06/29 03:40:22;;;;;;;4.25;3.22;;;14.00;99.90;;;;;;5075311;28;20044;-74
2022/06/29 03:42:48;;;;;;;4.90;3.25;;;13.90;99.90;;;;;;5093220;28;20052;-74
2022/06/29 03:45:13;;;;;;;4.57;3.40;;;13.90;99.90;;;;;;5093096;28;20040;-74
2022/06/29 03:47:39;;;;;;;3.95;3.08;;;14.00;99.90;;;;;;5093042;28;20043;-74
2022/06/29 03:50:07;;;;;;;4.72;3.38;;;14.00;99.90;;;;;;5092393;28;20083;-74
2022/06/29 03:52:33;;;;;;;3.85;3.40;;;14.00;99.90;;;;;;5092972;28;20054;-74
2022/06/29 03:54:58;;;;;;;3.80;3.28;;;13.90;99.90;;;;;;5092916;28;20458;-74
2022/06/29 03:57:24;;;;;;;4.90;3.72;;;13.90;99.90;;;;;;5092999;28;20127;-74
2022/06/29 03:59:50;;;;;;;3.58;3.20;;;13.90;99.90;;;;;;5093138;28;20063;-74
2022/06/29 04:02:16;;;;;;;4.13;3.08;;;13.80;99.90;;;;;;5074847;28;20369;-74
2022/06/29 04:04:41;;;;;;;4.63;3.40;;;13.80;99.90;;;;;;5092715;28;20051;-74
2022/06/29 04:07:07;;;;;;;5.28;3.80;;;13.70;99.90;;;;;;5092727;28;20547;-74
2022/06/29 04:09:33;;;;;;;3.92;3.53;;;13.70;99.90;;;;;;5074667;28;20074;-74
2022/06/29 04:11:58;;;;;;;8.13;4.18;;;13.70;99.90;;;;;;5071096;28;20060;-74
2022/06/29 04:14:26;;;;;;;5.15;3.55;;;13.70;99.90;;;;;;5072314;28;20056;-74
2022/06/29 04:16:55;;;;;;;5.40;4.03;;;13.70;99.90;;;;;;5072337;28;20067;-75
2022/06/29 04:19:22;;;;;;;4.70;3.60;;;13.70;99.90;;;;;;5070697;28;20143;-75
2022/06/29 04:21:48;;;;;;;4.25;3.85;;;13.70;99.90;;;;;;5072262;28;20063;-74
2022/06/29 04:24:14;;;;;;;4.30;3.90;;;13.70;99.90;;;;;;5071047;28;20481;-74
2022/06/29 04:26:40;;;;;;;4.72;3.85;;;13.80;99.90;;;;;;5071095;28;20413;-75
2022/06/29 04:29:06;;;;;;;5.00;4.07;;;13.80;99.90;;;;;;5071809;28;20520;-75
2022/06/29 04:31:33;;;;;;;4.60;3.88;;;13.80;99.90;;;;;;5071941;28;20047;-75
2022/06/29 04:33:59;;;;;;;4.57;4.00;;;13.80;99.90;;;;;;5071831;28;20045;-75
2022/06/29 04:36:24;;;;;;;5.55;4.15;;;13.90;99.90;;;;;;5071889;28;20098;-75
2022/06/29 04:38:50;;;;;;;5.03;4.03;;;13.90;99.90;;;;;;5071876;28;20431;-74
2022/06/29 04:41:16;;;;;;;5.28;3.78;;;13.90;99.90;;;;;;5070836;28;20064;-75
2022/06/29 04:43:42;;;;;;;5.03;4.07;;;13.90;99.90;;;;;;5071393;28;20053;-75
2022/06/29 04:46:19;;;;;;;4.53;4.10;;;13.90;99.90;;;;;;5071788;28;20044;-74
2022/06/29 04:48:55;;;;;;;5.32;4.47;;;13.90;99.90;;;;;;5071683;28;20519;-75
2022/06/29 04:51:21;;;;;;;5.20;4.28;;;14.00;99.90;;;;;;5071300;28;20055;-74
2022/06/29 04:53:47;;;;;;;4.80;3.85;;;14.00;99.90;;;;;;5071575;28;20044;-75
2022/06/29 04:56:14;;;;;;;6.07;4.30;;;14.00;99.90;;;;;;5070592;28;20049;-75
2022/06/29 04:58:40;;;;;;;5.15;4.38;;;14.00;99.90;;;;;;5071547;28;20053;-75
2022/06/29 05:01:06;;;;;;;5.90;4.38;;;14.10;99.90;;;;;;5071799;28;20054;-75
2022/06/29 05:03:32;;;;;;;5.03;4.45;;;14.10;99.90;;;;;;5071165;28;20543;-75
2022/06/29 05:05:58;;;;;;;4.72;4.32;;;14.10;99.90;;;;;;5071425;28;20044;-74
2022/06/29 05:08:23;;;;;;;5.32;4.47;;;14.20;99.90;;;;;;5071499;28;20567;-74
2022/06/29 05:10:49;;;;;;;5.90;4.78;;;14.20;99.90;;;;;;5071323;28;20048;-75
2022/06/29 05:13:15;;;;;;;5.15;4.22;;;14.30;99.90;;;;;;5069816;28;20135;-74
2022/06/29 05:15:41;;;;;;;6.05;4.93;;;14.50;99.90;;;;;;5071214;28;20049;-74
2022/06/29 05:18:07;;;;;;;5.07;4.57;;;14.70;99.90;;;;;;5070265;28;20135;-75
2022/06/29 05:20:32;;;;;;;5.35;4.80;;;14.80;99.90;;;;;;5070987;28;20480;-74
2022/06/29 05:22:58;;;;;;;5.20;4.53;;;15.00;99.90;;;;;;5071241;28;20182;-74
2022/06/29 05:25:24;;;;;;;6.65;4.80;;;15.20;99.90;;;;;;5071219;28;20067;-75
2022/06/29 05:27:50;;;;;;;6.40;4.93;;;15.30;99.90;;;;;;5071129;28;20070;-74
2022/06/29 05:30:16;;;;;;;4.82;4.30;;;15.50;99.90;;;;;;5070101;28;20048;-75
2022/06/29 05:32:42;;;;;;;4.82;4.28;;;15.60;99.90;;;;;;5069948;28;20052;-75
2022/06/29 05:35:09;;;;;;;4.85;4.32;;;15.70;99.90;;;;;;5071132;28;20084;-74
2022/06/29 05:37:35;;;;;;;4.75;4.22;;;15.80;99.90;;;;;;5070932;28;20056;-74
2022/06/29 05:40:01;;;;;;;5.78;4.93;;;15.90;99.90;;;;;;5071558;28;20082;-74
2022/06/29 05:42:26;;;;;;;5.75;4.72;;;16.10;99.90;;;;;;5051726;28;20045;-74
2022/06/29 05:44:52;;;;;;;5.75;4.57;;;16.20;99.90;;;;;;5051661;28;20047;-74
2022/06/29 05:47:18;;;;;;;4.72;4.32;;;16.30;99.90;;;;;;5051055;28;20500;-74
2022/06/29 05:49:44;;;;;;;4.82;4.25;;;16.50;99.90;;;;;;5050384;28;20059;-74
2022/06/29 05:52:09;;;;;;;5.35;4.43;;;16.70;99.90;;;;;;5050846;28;20064;-73
2022/06/29 05:54:35;;;;;;;4.63;4.22;;;16.80;99.90;;;;;;5050932;28;20392;-74
2022/06/29 05:57:01;;;;;;;5.55;5.00;;;16.90;99.90;;;;;;5055246;28;20052;-75
2022/06/29 05:59:27;;;;;;;6.30;4.82;;;17.00;99.90;;;;;;5053781;28;20099;-74
2022/06/29 06:01:53;;;;;;;5.20;4.70;;;17.10;99.90;;;;;;5054609;28;20055;-74
2022/06/29 06:04:18;;;;;;;5.47;4.90;;;17.20;99.90;;;;;;5053321;28;20052;-75
2022/06/29 06:06:44;;;;;;;5.65;5.05;;;17.30;99.90;;;;;;5053604;28;20049;-74
2022/06/29 06:09:10;;;;;;;5.63;5.00;;;17.40;99.90;;;;;;5054794;28;20527;-74
2022/06/29 06:11:36;;;;;;;6.15;5.20;;;17.50;99.90;;;;;;5053830;28;20056;-75
2022/06/29 06:14:02;;;;;;;5.78;4.75;;;17.60;99.90;;;;;;5074537;28;20053;-67
2022/06/29 06:16:28;;;;;;;5.75;4.85;;;17.70;99.90;;;;;;5074488;28;20445;-67
2022/06/29 06:18:54;;;;;;;4.93;4.43;;;17.80;99.90;;;;;;5074524;28;20400;-67
2022/06/29 06:21:19;;;;;;;7.15;4.80;;;18.00;99.90;;;;;;5074022;28;20055;-67
2022/06/29 06:23:45;;;;;;;5.85;5.07;;;18.10;99.90;;;;;;5074458;28;20409;-67
2022/06/29 06:26:11;;;;;;;5.78;4.90;;;18.20;99.90;;;;;;5074307;28;20400;-67
2022/06/29 06:28:36;;;;;;;4.70;3.70;;;18.40;99.90;;;;;;5074044;28;20044;-67
2022/06/29 06:31:02;;;;;;;5.93;4.30;;;18.50;99.90;;;;;;5056215;28;20048;-66
2022/06/29 06:33:28;;;;;;;4.72;3.92;;;18.60;99.90;;;;;;5081495;28;20044;-67
2022/06/29 06:35:53;;;;;;;5.25;3.88;;;18.70;99.90;;;;;;5085033;28;20093;-67
2022/06/29 06:38:19;;;;;;;4.68;3.70;;;18.80;99.90;;;;;;5093726;28;20052;-66
2022/06/29 06:43:29;;;;;;;4.05;3.65;;;19.00;99.90;;;;;;5094414;28;20394;-67
2022/06/29 06:45:54;;;;;;;5.85;4.07;;;19.10;99.90;;;;;;5093090;28;20127;-67
2022/06/29 06:48:20;;;;;;;4.30;3.65;;;19.20;99.90;;;;;;5073878;28;20493;-67
2022/06/29 06:50:46;;;;;;;4.47;4.03;;;19.30;99.90;;;;;;5072793;28;20132;-67
2022/06/29 06:53:11;;;;;;;4.30;3.40;;;19.40;99.90;;;;;;5085109;28;20048;-67
2022/06/29 06:55:37;;;;;;;5.85;3.72;;;19.50;99.90;;;;;;5093717;28;20432;-66
2022/06/29 06:58:03;;;;;;;3.53;2.92;;;19.60;99.90;;;;;;5093408;28;20071;-67
2022/06/29 07:00:29;;;;;;;4.20;3.80;;;19.70;99.90;;;;;;5093768;28;20052;-67
2022/06/29 07:02:55;;;;;;;4.18;3.05;;;19.80;99.90;;;;;;5093656;28;20059;-67
2022/06/29 07:05:21;;;;;;;4.15;2.92;;;19.90;99.90;;;;;;5093670;28;20036;-67
2022/06/29 07:07:47;;;;;;;4.70;3.38;;;20.00;99.90;;;;;;5093860;28;20083;-67
2022/06/29 07:10:12;;;;;;;3.75;3.13;;;20.00;99.90;;;;;;5093408;28;20059;-67
2022/06/29 07:12:38;;;;;;;5.38;3.00;;;19.90;99.90;;;;;;5093617;28;20060;-67
2022/06/29 07:15:05;;;;;;;3.80;2.83;;;20.00;99.90;;;;;;5080852;28;20085;-67
2022/06/29 07:17:31;;;;;;;3.42;3.03;;;20.00;99.90;;;;;;5091343;28;20078;-67
2022/06/29 07:19:56;;;;;;;3.45;2.83;;;20.20;99.90;;;;;;5092818;28;20465;-67
2022/06/29 07:22:22;;;;;;;2.97;2.33;;;20.30;99.90;;;;;;5092716;28;20131;-68
2022/06/29 07:24:48;;;;;;;3.67;2.50;;;20.40;99.90;;;;;;5093512;28;20086;-69
2022/06/29 07:27:13;;;;;;;3.10;2.70;;;20.40;99.90;;;;;;5093622;28;20135;-67
2022/06/29 07:29:40;;;;;;;3.47;2.50;;;20.30;99.90;;;;;;5092699;28;20081;-67
2022/06/29 07:32:06;;;;;;;4.30;2.50;;;20.30;99.90;;;;;;5089413;28;20064;-67
2022/06/29 07:34:32;;;;;;;2.67;2.03;;;20.40;99.90;;;;;;5092746;28;20069;-67
2022/06/29 07:36:57;;;;;;;4.20;2.20;;;20.50;99.90;;;;;;5058052;28;20073;-67
2022/06/29 07:39:23;;;;;;;3.10;2.10;;;20.60;99.90;;;;;;5092809;28;20051;-67
2022/06/29 07:41:49;;;;;;;3.55;2.20;;;20.80;99.90;;;;;;5092758;28;20131;-67
2022/06/29 07:44:14;;;;;;;3.13;2.42;;;20.90;99.90;;;;;;5078085;28;20044;-67
2022/06/29 07:46:40;;;;;;;3.72;1.95;;;21.00;99.90;;;;;;5071569;28;20448;-67
2022/06/29 07:49:06;;;;;;;2.75;1.90;;;21.10;99.90;;;;;;5089284;28;20040;-67
2022/06/29 07:51:31;;;;;;;3.45;1.83;;;21.30;99.90;;;;;;5077436;28;20140;-68
2022/06/29 07:53:57;;;;;;;3.03;1.95;;;21.40;99.90;;;;;;5091193;28;20446;-66
2022/06/29 07:56:23;;;;;;;2.70;1.55;;;21.50;99.90;;;;;;5080758;28;20056;-66
2022/06/29 07:58:48;;;;;;;3.10;1.70;;;21.70;99.90;;;;;;5079057;28;20075;-66
2022/06/29 08:01:14;;;;;;;2.78;1.48;;;21.90;99.90;;;;;;5060299;28;20114;-65
2022/06/29 08:03:40;;;;;;;2.30;1.50;;;22.00;99.90;;;;;;5052973;28;20481;-66
2022/06/29 08:06:06;;;;;;;3.67;1.67;;;22.20;99.90;;;;;;5070913;28;20185;-65
2022/06/29 08:08:31;;;;;;;1.85;1.40;;;22.40;99.90;;;;;;5074434;28;20035;-67
2022/06/29 08:10:57;;;;;;;2.42;1.48;;;22.40;99.90;;;;;;5090952;28;20059;-65
2022/06/29 08:13:23;;;;;;;2.58;1.40;;;22.40;99.90;;;;;;5072388;28;20124;-66
2022/06/29 08:15:49;;;;;;;3.42;1.50;;;22.40;99.90;;;;;;5073030;28;20040;-66
2022/06/29 08:18:16;;;;;;;3.40;1.50;;;22.20;99.90;;;;;;5090201;28;20055;-66
2022/06/29 08:20:43;;;;;;;2.67;1.50;;;22.20;99.90;;;;;;5089156;28;20054;-66
2022/06/29 08:23:09;;;;;;;2.60;1.27;;;22.30;99.90;;;;;;5090980;28;20400;-66
2022/06/29 08:25:35;;;;;;;1.98;1.40;;;22.30;99.90;;;;;;5091208;28;20405;-65
2022/06/29 08:28:01;;;;;;;2.83;1.48;;;22.40;99.90;;;;;;5089871;28;20047;-66
2022/06/29 08:30:27;;;;;;;2.88;1.58;;;22.50;99.90;;;;;;5090449;28;20487;-66
2022/06/29 08:32:53;;;;;;;2.45;1.50;;;22.60;99.90;;;;;;5071744;28;20403;-65
2022/06/29 08:35:19;;;;;;;1.90;1.42;;;22.70;99.90;;;;;;5068301;28;20041;-66
2022/06/29 08:37:46;;;;;;;2.72;1.70;;;22.90;99.90;;;;;;5090198;28;20067;-66
2022/06/29 08:40:14;;;;;;;2.20;1.40;;;23.00;99.90;;;;;;5090553;28;20106;-66
2022/06/29 08:42:40;;;;;;;3.70;1.60;;;23.10;99.90;;;;;;5085488;28;20122;-67
2022/06/29 08:45:08;;;;;;;2.35;1.45;;;23.00;99.90;;;;;;5076225;28;20526;-68
2022/06/29 08:47:35;;;;;;;2.50;1.70;;;22.80;99.90;;;;;;5070237;28;20055;-66
2022/06/29 08:50:05;;;;;;;2.55;1.83;;;22.70;99.90;;;;;;5065489;28;20142;-67
2022/06/29 08:52:33;;;;;;;3.33;1.60;;;22.70;99.90;;;;;;5077146;28;20048;-66
2022/06/29 08:55:01;;;;;;;2.22;1.45;;;22.80;99.90;;;;;;5052303;28;20050;-66
2022/06/29 08:57:28;;;;;;;2.78;1.70;;;23.00;99.90;;;;;;5069954;28;20578;-67
2022/06/29 08:59:54;;;;;;;3.05;1.83;;;23.10;99.90;;;;;;5070124;28;20084;-69
2022/06/29 09:02:20;;;;;;;2.70;1.70;;;23.20;99.90;;;;;;5085211;28;20461;-66
2022/06/29 09:04:46;;;;;;;2.28;1.40;;;23.30;99.90;;;;;;5089762;28;20075;-66
2022/06/29 09:07:11;;;;;;;2.90;1.60;;;23.30;99.90;;;;;;5090418;28;20634;-66
2022/06/29 09:10:08;;;;;;;3.20;1.75;;;23.50;99.90;;;;;;5072217;28;20048;-67
2022/06/29 09:12:34;;;;;;;3.05;1.92;;;23.60;99.90;;;;;;5058573;28;20068;-67
2022/06/29 09:15:02;;;;;;;2.95;1.65;;;23.50;99.90;;;;;;5089244;28;20048;-69
2022/06/29 09:17:31;;;;;;;2.75;1.52;;;23.60;99.90;;;;;;5089338;28;20091;-67
2022/06/29 09:19:57;;;;;;;2.20;1.70;;;23.80;99.90;;;;;;5071536;28;20078;-65
2022/06/29 09:22:22;;;;;;;4.65;1.50;;;24.00;99.90;;;;;;5090077;28;20693;-67
2022/06/29 09:24:49;;;;;;;2.25;1.75;;;24.20;99.90;;;;;;5089940;28;20476;-67
2022/06/29 09:27:15;;;;;;;2.53;1.70;;;24.40;99.90;;;;;;5089589;28;20051;-67
2022/06/29 09:29:42;;;;;;;2.03;1.40;;;24.50;99.90;;;;;;5090085;28;20051;-66
2022/06/29 09:32:13;;;;;;;2.30;1.42;;;24.50;99.90;;;;;;5089936;28;20063;-66
2022/06/29 09:34:46;;;;;;;2.95;1.60;;;24.60;99.90;;;;;;5071226;28;20413;-66
2022/06/29 09:37:17;;;;;;;2.22;1.50;;;24.70;99.90;;;;;;5089921;28;20131;-67
2022/06/29 09:39:45;;;;;;;3.30;1.52;;;24.80;99.90;;;;;;5089912;28;20090;-66
2022/06/29 09:42:25;;;;;;;2.33;1.70;;;24.90;99.90;;;;;;5089553;28;20381;-69
2022/06/29 09:44:51;;;;;;;3.00;1.73;;;24.90;99.90;;;;;;5089950;28;20043;-67
2022/06/29 09:47:19;;;;;;;2.67;1.85;;;24.90;99.90;;;;;;5071854;28;20056;-67
2022/06/29 09:49:47;;;;;;;3.28;1.70;;;25.00;99.90;;;;;;5089131;28;20054;-67
2022/06/29 09:52:15;;;;;;;2.65;1.80;;;25.00;99.90;;;;;;5079205;28;20493;-66
2022/06/29 09:54:54;;;;;;;2.53;2.00;;;25.00;99.90;;;;;;5051597;28;20489;-66
2022/06/29 09:57:21;;;;;;;2.90;2.00;;;25.00;99.90;;;;;;5069291;28;20045;-67
2022/06/29 10:02:43;;;;;;;2.92;1.48;;;24.80;99.90;;;;;;5069868;28;20082;-67
2022/06/29 10:05:20;;;;;;;2.42;1.65;;;24.70;99.90;;;;;;5069192;28;20405;-68
2022/06/29 10:07:51;;;;;;;2.33;1.75;;;24.60;99.90;;;;;;5069467;28;20102;-67
2022/06/29 10:10:25;;;;;;;2.38;1.77;;;24.50;99.90;;;;;;5051573;28;20041;-67
2022/06/29 10:15:53;;;;;;;2.15;1.80;;;24.40;99.90;;;;;;5069255;28;20093;-66
2022/06/29 10:18:36;;;;;;;2.97;1.92;;;24.30;99.90;;;;;;5069357;28;20087;-67
2022/06/29 10:21:11;;;;;;;2.00;1.80;;;24.30;99.90;;;;;;5069039;28;20049;-66
2022/06/29 10:23:53;;;;;;;4.18;2.30;;;24.30;99.90;;;;;;5069228;28;20113;-66
2022/06/29 10:26:28;;;;;;;2.28;1.67;;;24.30;99.90;;;;;;5068801;28;20472;-66
2022/06/29 10:28:55;;;;;;;3.22;1.52;;;24.30;99.90;;;;;;5051404;28;20128;-66
2022/06/29 10:31:56;;;;;;;5.13;1.90;;;24.30;99.90;;;;;;5081954;28;20066;-66
2022/06/29 10:34:31;;;;;;;2.20;1.70;;;24.30;99.90;;;;;;5070881;28;20156;-67
2022/06/29 10:37:04;;;;;;;2.27;1.77;;;24.30;99.90;;;;;;5089639;28;20043;-67
2022/06/29 10:39:41;;;;;;;2.65;1.80;;;24.50;99.90;;;;;;5068910;28;20751;-68
2022/06/29 10:45:16;;;;;;;2.28;1.63;;;24.60;99.90;;;;;;5093023;28;20110;-67
2022/06/29 10:48:07;;;;;;;2.88;1.85;;;24.60;99.90;;;;;;5074927;28;20059;-67
2022/06/29 10:50:38;;;;;;;2.22;1.77;;;24.60;99.90;;;;;;5080337;28;20067;-67
2022/06/29 10:53:09;;;;;;;2.10;1.80;;;24.60;99.90;;;;;;5092795;28;20051;-67
2022/06/29 10:55:50;;;;;;;2.05;1.60;;;24.60;99.90;;;;;;5091978;28;20071;-68
2022/06/29 10:58:17;;;;;;;2.85;2.17;;;24.50;99.90;;;;;;5094065;28;20083;-67
2022/06/29 11:00:45;;;;;;;3.17;1.95;;;24.50;99.90;;;;;;5074390;28;20048;-67
2022/06/29 11:03:23;;;;;;;2.15;1.77;;;24.50;99.90;;;;;;5072278;28;20086;-67
2022/06/29 11:14:06;;;;;;;3.20;2.17;;;24.50;99.90;;;;;;5091741;28;20056;-67
2022/06/29 11:16:36;;;;;;;3.03;2.30;;;24.50;99.90;;;;;;5074454;28;20094;-67
2022/06/29 11:19:04;;;;;;;3.30;2.20;;;24.50;99.90;;;;;;5092115;28;20048;-66
2022/06/29 11:21:30;;;;;;;2.78;2.10;;;24.50;99.90;;;;;;5091219;28;20056;-66
2022/06/29 11:24:03;;;;;;;2.63;1.90;;;24.50;99.90;;;;;;5092082;28;20136;-67
2022/06/29 11:26:29;;;;;;;2.78;2.10;;;24.60;99.90;;;;;;5074450;28;20052;-66
2022/06/29 11:28:57;;;;;;;3.55;2.10;;;24.60;99.90;;;;;;5091488;28;20093;-66
2022/06/29 11:31:23;;;;;;;2.67;2.38;;;24.60;99.90;;;;;;5091838;28;20408;-67
2022/06/29 11:33:52;;;;;;;3.22;2.40;;;24.70;99.90;;;;;;5091825;28;20083;-66
2022/06/29 11:36:30;;;;;;;3.08;2.40;;;24.70;99.90;;;;;;5091578;28;20052;-66
2022/06/29 11:39:06;;;;;;;2.63;2.10;;;24.80;99.90;;;;;;5091740;28;20044;-67
2022/06/29 11:44:31;;;;;;;3.45;2.30;;;25.10;99.90;;;;;;5091835;28;20094;-67
2022/06/29 11:46:57;;;;;;;2.53;2.05;;;25.40;99.90;;;;;;5091952;28;20051;-67
2022/06/29 11:49:39;;;;;;;2.72;2.22;;;25.40;99.90;;;;;;5091522;28;20388;-66
2022/06/29 11:52:10;;;;;;;3.50;2.15;;;25.50;99.90;;;;;;5080333;28;20047;-67
2022/06/29 11:54:41;;;;;;;2.60;2.25;;;25.50;99.90;;;;;;5082860;28;20052;-67
2022/06/29 11:57:17;;;;;;;3.40;2.30;;;25.50;99.90;;;;;;5091888;28;20101;-66
2022/06/29 11:59:44;;;;;;;3.20;2.47;;;25.40;99.90;;;;;;5091108;28;20048;-67
2022/06/29 12:02:11;;;;;;;2.67;2.22;;;25.40;99.90;;;;;;5091003;28;20401;-66
2022/06/29 12:04:38;;;;;;;2.97;2.50;;;25.40;99.90;;;;;;5091505;28;20090;-66
2022/06/29 12:07:08;;;;;;;4.00;2.60;;;25.40;99.90;;;;;;5091426;28;20067;-67
2022/06/29 12:09:35;;;;;;;2.72;2.42;;;25.40;99.90;;;;;;5090450;28;20497;-67
2022/06/29 12:12:01;;;;;;;3.30;2.50;;;25.30;99.90;;;;;;5091072;28;20082;-66
2022/06/29 12:14:26;;;;;;;3.35;2.22;;;25.20;99.90;;;;;;5091020;28;20044;-66
2022/06/29 12:16:52;;;;;;;3.10;2.80;;;25.20;99.90;;;;;;5091481;28;20052;-67
2022/06/29 12:19:18;;;;;;;3.30;2.55;;;25.10;99.90;;;;;;5090947;28;20059;-66
2022/06/29 12:21:44;;;;;;;4.20;2.45;;;25.10;99.90;;;;;;5090456;28;20044;-66
2022/06/29 12:24:09;;;;;;;3.72;2.53;;;25.10;99.90;;;;;;5089981;28;20291;-66
2022/06/29 12:26:35;;;;;;;3.90;2.90;;;25.10;99.90;;;;;;5090997;28;20044;-66
2022/06/29 12:29:01;;;;;;;3.95;2.70;;;25.10;99.90;;;;;;5090423;28;20132;-67
2022/06/29 12:31:26;;;;;;;2.88;2.50;;;25.10;99.90;;;;;;5090746;28;20048;-67
2022/06/29 12:33:52;;;;;;;3.50;2.78;;;25.10;99.90;;;;;;5090639;28;20454;-67
2022/06/29 12:36:18;;;;;;;3.75;2.72;;;25.10;99.90;;;;;;5090542;28;19920;-66
2022/06/29 12:38:44;;;;;;;4.15;2.92;;;25.20;99.90;;;;;;5090538;28;20432;-67
2022/06/29 12:41:09;;;;;;;2.85;2.55;;;25.10;99.90;;;;;;5091215;28;20274;-66
2022/06/29 12:43:35;;;;;;;3.00;2.53;;;25.00;99.90;;;;;;5090292;28;20051;-67
2022/06/29 12:46:01;;;;;;;4.38;2.70;;;25.00;99.90;;;;;;5090594;28;20051;-67
2022/06/29 12:48:27;;;;;;;4.68;2.70;;;24.90;99.90;;;;;;5072525;28;20050;-67
2022/06/29 12:50:54;;;;;;;3.97;2.30;;;24.90;99.90;;;;;;5089639;28;20134;-67
2022/06/29 12:53:19;;;;;;;4.07;2.40;;;25.00;99.90;;;;;;5071069;28;20194;-67
2022/06/29 12:55:45;;;;;;;4.15;2.63;;;25.10;99.90;;;;;;5090319;28;20127;-67
2022/06/29 12:58:11;;;;;;;3.42;2.20;;;25.20;99.90;;;;;;5090165;28;20123;-67
2022/06/29 13:00:36;;;;;;;4.20;2.95;;;25.20;99.90;;;;;;5090104;28;20036;-66
2022/06/29 13:03:02;;;;;;;3.42;2.60;;;25.20;99.90;;;;;;5071913;28;20040;-67
2022/06/29 13:05:28;;;;;;;2.95;2.17;;;25.30;99.90;;;;;;5089702;28;20055;-66
2022/06/29 13:07:54;;;;;;;3.13;2.78;;;25.40;99.90;;;;;;5072183;28;20135;-67
2022/06/29 13:10:20;;;;;;;4.18;2.53;;;25.50;99.90;;;;;;5090244;28;20059;-66
2022/06/29 13:12:46;;;;;;;4.65;2.60;;;25.60;99.90;;;;;;5071515;28;20232;-66